Time;durP1;ratioP1;P1;durP2;ratioP2;P2;SDS_P1;SDS_P2;PMS_P1;PMS_P2;Temp;Humidity;BMP_temperature;BMP_pressure;BME280_temperature;BME280_humidity;BME280_pressure;Samples;Min_cycle;Max_cycle;Signal;HPM_P1;HPM_P2
2023/10/02 00:01:56;;;;;;;1.37;1.27;;;;;;;19.12;61.26;95771.28;5134629;27;20469;-57
2023/10/02 00:04:26;;;;;;;1.27;0.40;;;;;;;18.74;62.45;95765.63;5134041;27;20457;-57
2023/10/02 00:07:07;;;;;;;0.63;0.60;;;;;;;18.86;62.91;95784.63;5134738;27;20438;-58
2023/10/02 00:09:37;;;;;;;5.80;0.87;;;;;;;18.74;63.55;95779.03;5107486;27;21057;-58
2023/10/02 00:12:11;;;;;;;0.40;0.30;;;;;;;18.86;62.47;95773.88;5134092;27;20431;-58
2023/10/02 00:14:41;;;;;;;0.60;0.57;;;;;;;18.62;63.32;95746.59;5134375;27;20892;-57
2023/10/02 00:17:15;;;;;;;0.50;0.30;;;;;;;18.78;63.50;95787.25;5133913;27;20474;-57
2023/10/02 00:19:47;;;;;;;0.50;0.30;;;;;;;18.81;63.21;95792.81;5134367;27;20446;-57
2023/10/02 00:22:38;;;;;;;0.40;0.30;;;;;;;18.92;62.92;95788.75;5134200;27;20423;-57
2023/10/02 00:25:09;;;;;;;0.40;0.30;;;;;;;18.99;62.46;95789.09;5133897;27;20506;-57
2023/10/02 00:27:38;;;;;;;0.50;0.30;;;;;;;18.87;63.57;95786.19;5134098;27;20442;-57
2023/10/02 00:30:13;;;;;;;1.00;0.40;;;;;;;18.61;62.94;95752.28;5133318;27;20480;-57
2023/10/02 00:32:45;;;;;;;0.70;0.53;;;;;;;18.53;62.51;95726.97;5133938;27;20801;-57
2023/10/02 00:35:16;;;;;;;0.93;0.77;;;;;;;19.01;61.80;95792.28;5133717;27;20644;-57
2023/10/02 00:37:45;;;;;;;0.60;0.50;;;;;;;18.97;61.90;95793.19;5134195;27;20499;-57
2023/10/02 00:40:20;;;;;;;0.80;0.77;;;;;;;18.24;64.65;95802.56;5132449;27;20934;-57
2023/10/02 00:42:49;;;;;;;0.60;0.60;;;;;;;17.80;66.47;95804.41;5133678;27;20426;-57
2023/10/02 00:45:18;;;;;;;2.60;0.90;;;;;;;18.08;67.27;95805.91;5133576;27;20468;-57
2023/10/02 00:47:47;;;;;;;0.70;0.63;;;;;;;18.30;66.24;95809.38;5133812;27;20438;-57
2023/10/02 00:50:18;;;;;;;1.47;0.60;;;;;;;17.48;66.92;95744.50;5133695;27;20474;-57
2023/10/02 00:53:06;;;;;;;0.40;0.30;;;;;;;17.76;67.61;95810.38;5133045;27;20487;-57
2023/10/02 00:55:37;;;;;;;0.50;0.30;;;;;;;18.08;66.44;95805.91;5133749;27;20430;-57
2023/10/02 00:58:08;;;;;;;0.60;0.50;;;;;;;17.59;67.52;95807.53;5133300;27;20430;-57
2023/10/02 01:00:42;;;;;;;0.70;0.70;;;;;;;17.10;68.79;95808.25;5133372;27;20442;-57
2023/10/02 01:03:14;;;;;;;0.80;0.80;;;;;;;16.94;70.90;95800.81;5132516;27;20561;-57
2023/10/02 01:05:50;;;;;;;5.17;1.00;;;;;;;16.87;70.95;95795.06;5132789;27;20526;-57
2023/10/02 01:08:42;;;;;;;1.47;1.37;;;;;;;16.83;71.77;95796.75;5132145;27;20430;-56
2023/10/02 01:11:14;;;;;;;0.60;0.40;;;;;;;17.06;70.35;95795.75;5132809;27;20446;-57
2023/10/02 01:13:44;;;;;;;0.70;0.40;;;;;;;16.99;71.43;95795.38;5133121;27;20437;-57
2023/10/02 01:16:17;;;;;;;0.90;0.60;;;;;;;17.26;69.52;95790.00;5132580;27;20438;-57
2023/10/02 01:18:48;;;;;;;9.30;0.40;;;;;;;17.61;67.88;95797.31;5132433;27;20443;-57
2023/10/02 01:21:24;;;;;;;0.50;0.30;;;;;;;17.78;67.00;95786.72;5133173;27;20444;-56
2023/10/02 01:24:10;;;;;;;0.80;0.40;;;;;;;17.04;70.46;95720.28;5133282;27;20434;-57
2023/10/02 01:26:41;;;;;;;0.40;0.30;;;;;;;17.37;70.37;95796.75;5132440;27;20430;-57
2023/10/02 01:29:11;;;;;;;0.57;0.50;;;;;;;17.25;71.12;95803.69;5133098;27;20480;-57
2023/10/02 01:31:45;;;;;;;0.50;0.50;;;;;;;17.39;69.80;95807.16;5132475;27;20951;-57
2023/10/02 01:34:33;;;;;;;0.60;0.50;;;;;;;17.56;69.26;95802.78;5133111;27;20464;-57
2023/10/02 01:37:05;;;;;;;0.80;0.57;;;;;;;17.78;68.11;95810.88;5132575;27;20433;-57
2023/10/02 01:39:35;;;;;;;0.53;0.50;;;;;;;17.83;68.80;95811.88;5131219;27;20876;-57
2023/10/02 01:42:05;;;;;;;9.43;0.60;;;;;;;17.21;71.11;95805.38;5105893;27;20471;-56
2023/10/02 01:44:54;;;;;;;0.80;0.50;;;;;;;16.94;74.60;95824.94;5132245;27;20822;-56
2023/10/02 01:47:24;;;;;;;0.50;0.47;;;;;;;16.66;78.75;95815.25;5132848;27;20439;-56
2023/10/02 01:50:00;;;;;;;0.50;0.30;;;;;;;16.83;78.60;95826.19;5131904;27;20519;-56
2023/10/02 01:52:31;;;;;;;0.60;0.60;;;;;;;16.80;79.15;95830.25;5132648;27;20442;-56
2023/10/02 01:55:29;;;;;;;3.10;0.73;;;;;;;17.14;76.45;95829.88;5110377;27;20434;-56
2023/10/02 01:58:16;;;;;;;0.93;0.50;;;;;;;17.24;75.15;95831.56;5131984;27;20930;-56
2023/10/02 02:00:46;;;;;;;0.53;0.43;;;;;;;17.11;75.04;95827.81;5132432;27;20438;-56
2023/10/02 02:03:15;;;;;;;0.60;0.60;;;;;;;16.82;77.00;95821.94;5132301;27;20470;-56
2023/10/02 02:05:46;;;;;;;0.53;0.53;;;;;;;16.68;76.32;95827.25;5132294;27;20474;-56
2023/10/02 02:08:25;;;;;;;0.40;0.30;;;;;;;16.75;75.58;95827.66;5132853;28;20446;-56
2023/10/02 02:11:14;;;;;;;0.60;0.40;;;;;;;16.53;76.20;95835.56;5132232;28;20553;-56
2023/10/02 02:13:46;;;;;;;1.10;0.40;;;;;;;16.36;78.03;95835.28;5132658;27;20439;-56
2023/10/02 02:16:17;;;;;;;0.57;0.50;;;;;;;16.50;78.59;95830.75;5132377;28;20435;-56
2023/10/02 02:18:48;;;;;;;0.50;0.30;;;;;;;16.80;77.01;95826.81;5128803;27;20473;-57
2023/10/02 02:21:18;;;;;;;1.60;0.43;;;;;;;17.04;75.41;95827.41;5132164;28;20930;-57
2023/10/02 02:24:03;;;;;;;1.00;0.87;;;;;;;17.13;74.37;95818.38;5132211;27;20431;-56
2023/10/02 02:26:33;;;;;;;0.40;0.30;;;;;;;17.34;73.23;95826.00;5131918;28;20445;-56
2023/10/02 02:29:02;;;;;;;0.50;0.33;;;;;;;17.33;73.07;95819.84;5104474;28;20438;-56
2023/10/02 02:31:32;;;;;;;0.50;0.40;;;;;;;17.08;74.73;95823.03;5131855;28;20994;-56
2023/10/02 02:34:07;;;;;;;0.57;0.40;;;;;;;16.51;76.48;95768.94;5132340;27;20963;-56
2023/10/02 02:36:47;;;;;;;0.50;0.40;;;;;;;16.62;77.52;95820.41;5132178;27;20483;-56
2023/10/02 02:39:22;;;;;;;0.73;0.73;;;;;;;16.47;78.46;95826.78;5132111;28;20450;-56
2023/10/02 02:42:08;;;;;;;3.90;0.50;;;;;;;16.70;77.33;95818.94;5132035;27;20426;-56
2023/10/02 02:44:43;;;;;;;0.50;0.47;;;;;;;16.93;76.44;95823.31;5132942;27;20466;-57
2023/10/02 02:47:13;;;;;;;2.20;0.73;;;;;;;17.12;74.33;95827.53;5136288;27;20461;-56
2023/10/02 02:49:51;;;;;;;0.70;0.70;;;;;;;17.06;75.53;95817.19;5135434;27;21241;-56
2023/10/02 02:52:24;;;;;;;1.10;1.00;;;;;;;16.70;77.41;95832.31;5136058;27;20436;-57
2023/10/02 02:54:59;;;;;;;0.83;0.83;;;;;;;16.28;78.76;95756.50;5135698;27;20446;-57
2023/10/02 02:57:33;;;;;;;0.60;0.50;;;;;;;17.14;77.05;95824.53;5134729;27;20445;-57
2023/10/02 03:00:29;;;;;;;0.60;0.40;;;;;;;16.83;77.38;95824.31;5124326;27;21111;-57
2023/10/02 03:03:02;;;;;;;1.00;0.77;;;;;;;16.61;77.42;95816.16;5134381;27;20505;-56
2023/10/02 03:05:40;;;;;;;3.40;0.87;;;;;;;16.62;77.71;95819.63;5134950;27;20456;-57
2023/10/02 03:08:11;;;;;;;0.80;0.77;;;;;;;16.42;77.33;95776.03;5135703;27;21155;-56
2023/10/02 03:10:40;;;;;;;1.07;0.77;;;;;;;16.31;78.41;95806.75;5135452;27;20477;-56
2023/10/02 03:13:15;;;;;;;0.67;0.67;;;;;;;16.34;80.04;95811.47;5135583;27;20954;-56
2023/10/02 03:15:48;;;;;;;0.80;0.80;;;;;;;16.43;80.11;95811.63;5135250;27;20438;-56
2023/10/02 03:18:30;;;;;;;1.30;0.87;;;;;;;16.13;80.55;95799.56;5122569;27;20439;-56
2023/10/02 03:21:00;;;;;;;1.10;1.00;;;;;;;16.04;80.44;95798.59;5103090;28;20467;-56
2023/10/02 03:23:30;;;;;;;1.77;0.83;;;;;;;16.55;80.93;95817.31;5130543;27;20445;-56
2023/10/02 03:25:59;;;;;;;0.60;0.40;;;;;;;16.86;78.24;95817.56;5135607;27;20438;-56
2023/10/02 03:28:32;;;;;;;0.63;0.50;;;;;;;16.87;77.63;95819.16;5134925;27;20961;-56
2023/10/02 03:31:01;;;;;;;0.50;0.40;;;;;;;16.63;78.24;95810.50;5135279;27;20477;-56
2023/10/02 03:33:32;;;;;;;0.53;0.40;;;;;;;16.80;77.96;95806.16;5131762;27;20431;-56
2023/10/02 03:36:08;;;;;;;0.70;0.60;;;;;;;16.96;77.58;95802.13;5135515;27;20494;-56
2023/10/02 03:38:41;;;;;;;0.50;0.40;;;;;;;17.17;76.29;95833.84;5134724;27;20539;-56
2023/10/02 03:41:13;;;;;;;0.80;0.50;;;;;;;17.34;76.39;95837.53;5134206;27;20485;-56
2023/10/02 03:43:46;;;;;;;1.23;0.40;;;;;;;17.61;74.86;95829.47;5109550;27;20439;-56
2023/10/02 03:46:22;;;;;;;3.70;0.67;;;;;;;17.39;76.10;95810.63;5134966;27;20914;-57
2023/10/02 03:48:58;;;;;;;0.47;0.33;;;;;;;17.51;76.52;95828.84;5134991;27;20437;-56
2023/10/02 03:51:40;;;;;;;1.00;0.70;;;;;;;17.61;74.74;95832.16;5135000;27;20930;-56
2023/10/02 03:54:20;;;;;;;0.50;0.40;;;;;;;16.92;76.18;95731.50;5134727;27;20811;-57
2023/10/02 03:56:50;;;;;;;0.93;0.90;;;;;;;17.41;74.84;95780.84;5134361;27;20442;-57
2023/10/02 03:59:26;;;;;;;1.03;0.73;;;;;;;17.29;74.50;95788.59;5134782;27;20427;-57
2023/10/02 04:01:57;;;;;;;0.83;0.63;;;;;;;17.48;75.17;95840.97;5134565;27;20498;-57
2023/10/02 04:04:32;;;;;;;8.73;0.50;;;;;;;17.21;76.81;95838.31;5134026;27;20442;-56
2023/10/02 04:07:01;;;;;;;0.60;0.60;;;;;;;17.06;77.54;95830.56;5133770;27;20521;-56
2023/10/02 04:09:30;;;;;;;1.00;0.80;;;;;;;17.43;76.27;95843.75;5134196;27;20483;-57
2023/10/02 04:12:04;;;;;;;0.90;0.57;;;;;;;17.68;74.66;95842.50;5134000;27;20997;-57
2023/10/02 04:14:38;;;;;;;0.40;0.30;;;;;;;17.80;74.43;95842.75;5134064;27;20587;-57
2023/10/02 04:17:13;;;;;;;1.07;0.97;;;;;;;17.78;74.80;95845.72;5133582;27;20544;-57
2023/10/02 04:19:47;;;;;;;0.50;0.33;;;;;;;17.73;75.99;95839.69;5134010;27;20425;-56
2023/10/02 04:22:23;;;;;;;0.63;0.60;;;;;;;17.53;76.30;95854.31;5133886;27;20521;-57
2023/10/02 04:24:51;;;;;;;1.47;1.37;;;;;;;17.25;78.02;95858.09;5134100;27;20872;-58
2023/10/02 04:27:25;;;;;;;0.67;0.60;;;;;;;17.31;77.56;95870.28;5133445;27;20481;-56
2023/10/02 04:30:21;;;;;;;0.70;0.53;;;;;;;17.27;79.47;95853.22;5133513;27;20513;-56
2023/10/02 04:32:59;;;;;;;21.67;1.40;;;;;;;16.21;85.47;95859.59;5133735;27;20438;-56
2023/10/02 04:35:44;;;;;;;1.27;1.03;;;;;;;15.80;87.74;95763.16;5133547;27;20865;-57
2023/10/02 04:38:14;;;;;;;0.83;0.83;;;;;;;16.40;87.81;95865.72;5133693;27;20835;-56
2023/10/02 04:40:49;;;;;;;1.17;1.07;;;;;;;16.72;86.07;95860.38;5133822;27;20500;-56
2023/10/02 04:43:23;;;;;;;1.37;1.27;;;;;;;15.90;83.18;95709.56;5133052;27;20430;-56
2023/10/02 04:46:01;;;;;;;0.57;0.43;;;;;;;16.93;81.90;95858.94;5132879;27;20438;-56
2023/10/02 04:48:39;;;;;;;0.50;0.50;;;;;;;16.79;82.17;95849.31;5101043;27;20525;-56
2023/10/02 04:51:09;;;;;;;0.70;0.60;;;;;;;16.72;81.30;95822.13;5102423;28;20507;-57
2023/10/02 04:53:42;;;;;;;0.90;0.60;;;;;;;16.96;81.39;95871.72;5118028;27;20522;-55
2023/10/02 04:56:24;;;;;;;0.60;0.60;;;;;;;17.00;81.31;95856.66;5132808;27;20479;-55
2023/10/02 04:58:57;;;;;;;1.10;0.60;;;;;;;16.93;82.21;95860.81;5108960;27;20503;-57
2023/10/02 05:01:41;;;;;;;0.70;0.67;;;;;;;17.00;81.85;95861.25;5133038;27;20863;-56
2023/10/02 05:04:18;;;;;;;0.90;0.50;;;;;;;17.34;79.34;95868.88;5133514;27;20499;-56
2023/10/02 05:06:55;;;;;;;0.50;0.37;;;;;;;17.31;79.60;95856.06;5132908;27;22352;-57
2023/10/02 05:09:25;;;;;;;2.63;0.50;;;;;;;17.44;78.77;95850.72;5133572;27;20431;-57
2023/10/02 05:11:56;;;;;;;1.13;0.70;;;;;;;17.50;77.72;95829.97;5133177;27;20470;-57
2023/10/02 05:14:28;;;;;;;1.97;1.27;;;;;;;17.07;79.72;95872.34;5133406;27;20769;-57
2023/10/02 05:20:04;;;;;;;1.53;1.43;;;;;;;16.54;85.46;95873.81;5129758;27;20517;-57
2023/10/02 05:22:32;;;;;;;0.90;0.70;;;;;;;16.92;82.60;95881.47;5132021;27;20431;-56
2023/10/02 05:25:04;;;;;;;0.50;0.40;;;;;;;17.10;80.79;95856.47;5132804;27;20891;-57
2023/10/02 05:27:36;;;;;;;0.63;0.60;;;;;;;17.35;78.83;95879.31;5132747;27;20456;-57
2023/10/02 05:30:12;;;;;;;4.37;0.80;;;;;;;17.57;78.01;95882.13;5132905;27;20435;-57
2023/10/02 05:32:43;;;;;;;0.80;0.63;;;;;;;17.50;78.77;95884.38;5132490;27;20775;-58
2023/10/02 05:35:18;;;;;;;1.00;0.90;;;;;;;17.49;78.27;95866.69;5132056;27;20850;-57
2023/10/02 05:37:51;;;;;;;0.40;0.33;;;;;;;18.04;75.98;95891.56;5132883;27;20438;-58
2023/10/02 05:43:18;;;;;;;0.90;0.90;;;;;;;17.71;76.15;95860.63;5083656;27;20443;-58
2023/10/02 05:45:50;;;;;;;3.10;0.67;;;;;;;17.76;77.82;95898.84;5132357;27;20926;-58
2023/10/02 05:48:37;;;;;;;0.80;0.80;;;;;;;17.67;78.72;95898.00;5132064;27;20435;-58
2023/10/02 05:51:09;;;;;;;2.20;0.60;;;;;;;18.31;75.98;95901.44;5132617;27;20435;-58
2023/10/02 05:53:53;;;;;;;1.70;0.60;;;;;;;18.23;76.98;95911.00;5106621;27;20442;-57
2023/10/02 05:56:25;;;;;;;0.87;0.83;;;;;;;18.58;75.39;95906.72;5132250;27;20438;-57
2023/10/02 05:58:55;;;;;;;0.70;0.70;;;;;;;19.28;74.24;95912.19;5132757;27;20479;-56
2023/10/02 06:01:27;;;;;;;0.60;0.40;;;;;;;19.70;71.54;95908.13;5131371;27;20441;-58
2023/10/02 06:04:00;;;;;;;0.80;0.60;;;;;;;20.21;70.97;95908.19;5132829;27;20430;-58
2023/10/02 06:06:35;;;;;;;0.70;0.50;;;;;;;20.57;68.38;95917.91;5131976;27;20462;-58
2023/10/02 06:09:13;;;;;;;0.60;0.53;;;;;;;20.69;67.24;95907.28;5132029;28;20438;-58
2023/10/02 06:14:25;;;;;;;1.07;1.00;;;;;;;20.88;66.72;95915.81;5131803;27;20491;-57
2023/10/02 06:16:53;;;;;;;1.53;1.47;;;;;;;20.66;67.41;95910.63;5132502;28;20507;-57
2023/10/02 06:19:23;;;;;;;0.50;0.30;;;;;;;20.86;67.21;95899.19;5135273;27;20457;-57
2023/10/02 06:22:06;;;;;;;1.43;0.90;;;;;;;21.19;66.11;95902.94;5133744;27;20440;-56
2023/10/02 06:24:34;;;;;;;1.30;1.23;;;;;;;21.25;65.16;95896.25;5115881;28;20442;-56
2023/10/02 06:27:07;;;;;;;1.33;1.23;;;;;;;21.30;64.64;95881.81;5116153;28;20508;-56
2023/10/02 06:29:36;;;;;;;3.00;0.97;;;;;;;21.84;63.35;95896.31;5115264;28;20888;-56
2023/10/02 06:32:09;;;;;;;3.43;1.47;;;;;;;22.24;61.41;95894.03;5115790;28;20470;-57
2023/10/02 06:34:43;;;;;;;1.23;1.13;;;;;;;22.41;60.59;95889.28;5115606;28;20477;-57
2023/10/02 06:37:13;;;;;;;2.70;0.67;;;;;;;23.16;60.51;95892.72;5116055;28;20433;-56
2023/10/02 06:39:42;;;;;;;0.87;0.63;;;;;;;23.72;59.33;95894.63;5115457;27;20488;-56
2023/10/02 06:42:12;;;;;;;1.80;1.70;;;;;;;23.91;56.26;95886.72;5115874;28;20874;-56
2023/10/02 06:44:52;;;;;;;1.60;0.50;;;;;;;24.22;56.05;95898.91;5115666;28;20526;-57
2023/10/02 06:47:23;;;;;;;0.80;0.70;;;;;;;24.10;54.32;95886.16;5115532;28;20919;-56
2023/10/02 06:49:53;;;;;;;0.97;0.90;;;;;;;23.23;55.82;95901.06;5114903;28;20435;-55
2023/10/02 06:52:24;;;;;;;1.27;1.17;;;;;;;23.91;56.66;95897.56;5115599;28;20463;-68
2023/10/02 06:54:56;;;;;;;2.07;1.97;;;;;;;23.34;57.08;95899.53;5115520;28;20431;-71
2023/10/02 06:57:25;;;;;;;3.23;1.03;;;;;;;23.58;58.67;95899.56;5115988;27;20427;-71
2023/10/02 06:59:54;;;;;;;1.17;1.07;;;;;;;23.78;56.98;95895.19;5114951;28;20518;-72
2023/10/02 07:02:25;;;;;;;3.80;1.53;;;;;;;24.41;56.01;95897.16;5115396;28;20467;-71
2023/10/02 07:04:57;;;;;;;1.17;1.07;;;;;;;24.45;54.84;95900.78;5115067;28;20431;-73
2023/10/02 07:07:30;;;;;;;2.57;2.07;;;;;;;25.10;54.58;95896.78;5115339;28;20442;-73
2023/10/02 07:10:07;;;;;;;1.47;1.37;;;;;;;25.13;53.54;95887.97;5115296;28;21064;-74
2023/10/02 07:12:39;;;;;;;1.67;1.57;;;;;;;25.02;53.50;95889.59;5115348;28;20486;-64
2023/10/02 07:15:13;;;;;;;3.90;3.13;;;;;;;24.67;53.67;95898.69;5115202;28;20475;-53
2023/10/02 07:17:48;;;;;;;2.97;1.43;;;;;;;24.84;52.65;95869.38;5115217;28;20463;-61
2023/10/02 07:20:20;;;;;;;1.30;1.20;;;;;;;25.12;53.07;95885.63;5114998;28;20942;-57
2023/10/02 07:22:50;;;;;;;1.60;0.77;;;;;;;25.55;51.11;95836.69;5101813;28;20465;-57
2023/10/02 07:25:20;;;;;;;1.70;1.27;;;;;;;26.89;49.13;95882.38;5114758;28;21020;-57
2023/10/02 07:27:49;;;;;;;0.77;0.77;;;;;;;27.51;47.51;95881.97;5114903;28;20522;-56
2023/10/02 07:30:26;;;;;;;0.87;0.87;;;;;;;27.76;46.96;95887.03;5113816;28;20988;-60
2023/10/02 07:33:03;;;;;;;1.80;1.60;;;;;;;27.18;46.20;95802.81;5114789;28;20561;-61
2023/10/02 07:35:34;;;;;;;1.47;1.37;;;;;;;27.39;47.05;95882.16;5114465;28;20945;-61
2023/10/02 07:38:08;;;;;;;4.70;1.80;;;;;;;27.23;46.72;95876.00;5115010;28;20514;-60
2023/10/02 07:43:23;;;;;;;0.77;0.77;;;;;;;27.83;43.64;95879.00;5114597;28;20441;-60
2023/10/02 07:46:01;;;;;;;0.63;0.60;;;;;;;28.38;43.55;95878.28;5114904;27;20446;-61
2023/10/02 07:48:33;;;;;;;0.90;0.83;;;;;;;28.50;45.13;95874.53;5114620;28;20576;-61
2023/10/02 07:51:06;;;;;;;0.73;0.73;;;;;;;28.23;43.75;95809.13;5114403;28;20500;-62
2023/10/02 07:53:40;;;;;;;1.80;1.10;;;;;;;28.10;42.69;95878.66;5114397;28;20471;-63
2023/10/02 07:56:11;;;;;;;1.83;1.73;;;;;;;28.67;42.69;95868.53;5114338;28;20818;-49
2023/10/02 07:58:41;;;;;;;0.40;0.40;;;;;;;29.31;42.51;95868.09;5114486;28;20440;-49
2023/10/02 08:01:12;;;;;;;0.70;0.70;;;;;;;29.19;40.46;95867.56;5114240;28;20466;-50
2023/10/02 08:03:49;;;;;;;0.80;0.50;;;;;;;29.25;40.25;95795.06;5114465;28;20443;-49
2023/10/02 08:06:23;;;;;;;3.80;1.07;;;;;;;29.76;40.01;95868.88;5133718;27;20934;-49
2023/10/02 08:09:35;;;;;;;1.13;0.90;;;;;;;29.67;40.07;95858.28;5134509;27;20503;-49
2023/10/02 08:11:49;;;;;;;0.60;0.53;;;;;;;29.95;39.22;95846.78;5134530;27;21018;-49
2023/10/02 08:14:42;;;;;;;1.10;0.60;;;;;;;29.08;39.73;95861.97;5133066;27;21041;-50
2023/10/02 08:17:22;;;;;;;0.70;0.60;;;;;;;29.05;40.57;95827.25;5133859;27;20450;-49
2023/10/02 08:19:59;;;;;;;0.93;0.67;;;;;;;30.13;39.46;95850.44;5134185;27;20451;-54
2023/10/02 08:22:35;;;;;;;1.63;1.20;;;;;;;31.54;36.47;95850.19;5134531;27;20468;-54
2023/10/02 08:25:13;;;;;;;0.40;0.40;;;;;;;31.71;36.00;95835.69;5133440;27;20502;-57
2023/10/02 08:27:42;;;;;;;0.40;0.40;;;;;;;32.39;35.12;95846.19;5133858;27;20477;-55
2023/10/02 08:30:26;;;;;;;1.00;0.60;;;;;;;32.61;34.23;95842.22;5133946;27;20445;-57
2023/10/02 08:33:05;;;;;;;0.87;0.87;;;;;;;31.49;36.45;95782.84;5134430;27;20465;-54
2023/10/02 08:35:36;;;;;;;0.77;0.77;;;;;;;30.76;35.03;95844.50;5134277;27;20456;-56
2023/10/02 08:38:21;;;;;;;0.93;0.60;;;;;;;30.93;36.51;95843.81;5133962;27;20490;-55
2023/10/02 08:40:57;;;;;;;3.83;0.73;;;;;;;31.25;36.19;95844.66;5134423;27;20461;-55
2023/10/02 08:43:26;;;;;;;0.67;0.67;;;;;;;31.17;35.99;95847.78;5133128;27;20455;-55
2023/10/02 08:45:55;;;;;;;0.87;0.83;;;;;;;31.15;36.01;95839.94;5133895;27;20453;-56
2023/10/02 08:48:25;;;;;;;1.00;0.67;;;;;;;31.28;35.22;95811.00;5133699;27;20445;-56
2023/10/02 08:50:58;;;;;;;2.10;1.17;;;;;;;31.05;34.63;95846.16;5133792;27;20442;-59
2023/10/02 08:53:28;;;;;;;1.23;1.13;;;;;;;31.04;34.89;95843.84;5133035;27;20564;-58
2023/10/02 08:56:22;;;;;;;0.90;0.80;;;;;;;31.54;34.57;95833.75;5133647;27;20520;-57
2023/10/02 08:59:15;;;;;;;0.60;0.53;;;;;;;32.35;33.90;95818.00;5113209;27;20498;-57
2023/10/02 09:01:40;;;;;;;0.60;0.60;;;;;;;32.33;34.43;95825.84;5133173;27;20900;-56
2023/10/02 09:04:29;;;;;;;0.83;0.83;;;;;;;32.05;33.34;95825.91;5133741;27;20441;-55
2023/10/02 09:07:14;;;;;;;0.90;0.80;;;;;;;32.39;33.31;95810.50;5133836;27;20442;-56
2023/10/02 09:09:47;;;;;;;0.60;0.60;;;;;;;32.78;33.07;95826.84;5133301;27;20430;-56
2023/10/02 09:12:17;;;;;;;0.50;0.40;;;;;;;32.48;32.91;95813.63;5133744;27;20477;-57
2023/10/02 09:14:46;;;;;;;0.50;0.33;;;;;;;33.47;32.09;95809.56;5133662;27;20530;-56
2023/10/02 09:17:19;;;;;;;0.40;0.37;;;;;;;33.96;31.54;95808.38;5133084;27;20430;-55
2023/10/02 09:19:55;;;;;;;1.07;0.57;;;;;;;33.85;32.04;95808.50;5132339;27;20876;-56
2023/10/02 09:22:25;;;;;;;0.63;0.63;;;;;;;33.63;31.34;95763.91;5132458;27;20425;-57
2023/10/02 09:25:15;;;;;;;0.63;0.60;;;;;;;33.59;32.36;95800.84;5132893;27;20949;-57
2023/10/02 09:27:56;;;;;;;0.80;0.80;;;;;;;33.25;31.38;95789.69;5125895;27;20526;-59
2023/10/02 09:30:36;;;;;;;0.77;0.67;;;;;;;33.70;32.44;95796.06;5128767;27;20449;-57
2023/10/02 09:33:14;;;;;;;0.60;0.60;;;;;;;33.85;30.52;95798.25;5132574;27;20465;-57
2023/10/02 09:36:00;;;;;;;0.80;0.60;;;;;;;33.96;30.27;95789.13;5132977;27;20434;-57
2023/10/02 09:38:51;;;;;;;0.63;0.63;;;;;;;33.59;31.13;95795.38;5132532;27;20442;-58
2023/10/02 09:41:23;;;;;;;1.23;0.60;;;;;;;33.35;31.82;95763.31;5132539;27;20438;-57
2023/10/02 09:43:52;;;;;;;0.73;0.60;;;;;;;33.69;29.82;95756.78;5132782;27;20440;-58
2023/10/02 09:46:23;;;;;;;0.97;0.87;;;;;;;33.47;30.10;95788.34;5132502;27;20445;-57
2023/10/02 09:49:03;;;;;;;0.50;0.40;;;;;;;33.16;30.51;95787.44;5132297;27;20438;-57
2023/10/02 09:52:09;;;;;;;0.60;0.50;;;;;;;34.60;29.18;95776.25;5132012;27;20529;-57
2023/10/02 09:54:46;;;;;;;0.90;0.90;;;;;;;33.55;30.81;95773.38;5131737;27;21021;-57
2023/10/02 09:57:24;;;;;;;0.93;0.93;;;;;;;33.08;30.66;95771.38;5121645;27;20431;-57
2023/10/02 09:59:54;;;;;;;0.50;0.40;;;;;;;34.09;31.17;95746.16;5131391;27;20453;-57
2023/10/02 10:10:52;;;;;;;0.80;0.80;;;;;;;34.71;30.30;95732.06;5116433;27;20818;-58
2023/10/02 10:13:31;;;;;;;0.50;0.47;;;;;;;34.27;29.70;95721.97;5131817;27;20463;-58
2023/10/02 10:16:38;;;;;;;1.27;0.70;;;;;;;33.15;30.69;95741.13;5130272;28;20452;-59
2023/10/02 10:19:31;;;;;;;2.30;0.67;;;;;;;33.98;29.80;95723.50;5129526;27;20196;-58
2023/10/02 10:22:04;;;;;;;0.53;0.40;;;;;;;33.54;30.70;95727.03;5130584;27;20437;-59
2023/10/02 10:24:55;;;;;;;0.60;0.50;;;;;;;32.75;31.16;95703.31;5130459;27;20203;-58
2023/10/02 10:28:05;;;;;;;0.80;0.80;;;;;;;32.71;30.05;95730.03;5130075;27;20438;-59
2023/10/02 10:30:44;;;;;;;0.60;0.60;;;;;;;33.69;31.07;95729.28;5131767;27;20922;-59
2023/10/02 10:33:45;;;;;;;0.70;0.50;;;;;;;34.16;29.01;95718.56;5132425;28;20474;-59
2023/10/02 10:36:35;;;;;;;0.80;0.80;;;;;;;34.77;28.35;95705.59;5031313;28;20495;-59
2023/10/02 10:41:57;;;;;;;0.50;0.40;;;;;;;34.53;27.83;95709.47;5131661;27;20456;-59
2023/10/02 10:44:33;;;;;;;0.60;0.40;;;;;;;35.13;27.28;95697.59;5132240;28;20200;-59
2023/10/02 10:47:06;;;;;;;1.20;0.40;;;;;;;35.60;26.79;95688.13;5132409;28;20245;-59
2023/10/02 10:50:11;;;;;;;0.60;0.60;;;;;;;35.90;26.37;95706.50;5132115;28;20877;-59
2023/10/02 10:52:44;;;;;;;0.40;0.40;;;;;;;35.97;25.68;95701.63;5131938;27;20192;-59
2023/10/02 10:55:35;;;;;;;0.87;0.77;;;;;;;34.71;27.29;95676.97;5107119;28;20245;-59
2023/10/02 10:58:04;;;;;;;0.83;0.63;;;;;;;33.21;28.03;95687.31;5132311;27;20195;-59
2023/10/02 11:00:41;;;;;;;3.23;0.57;;;;;;;33.42;27.87;95689.84;5131942;27;20194;-59
2023/10/02 11:03:14;;;;;;;0.50;0.50;;;;;;;34.59;28.40;95688.53;5131365;28;20251;-59
2023/10/02 11:05:44;;;;;;;0.40;0.40;;;;;;;35.40;26.95;95679.00;5133627;27;20280;-59
2023/10/02 11:08:28;;;;;;;0.60;0.60;;;;;;;35.11;27.52;95684.25;5129011;27;20283;-60
2023/10/02 11:11:26;;;;;;;0.80;0.80;;;;;;;35.07;26.26;95678.78;5131558;27;20235;-59
2023/10/02 11:13:58;;;;;;;0.43;0.40;;;;;;;34.88;27.24;95645.63;5134226;27;20231;-60
2023/10/02 11:16:31;;;;;;;0.70;0.70;;;;;;;35.02;27.02;95662.69;5135842;27;20217;-59
2023/10/02 11:19:25;;;;;;;0.50;0.50;;;;;;;35.15;26.86;95620.78;5135710;27;20192;-58
2023/10/02 11:22:14;;;;;;;0.40;0.30;;;;;;;36.70;26.02;95661.84;5135646;27;20192;-59
2023/10/02 11:24:44;;;;;;;0.60;0.40;;;;;;;36.79;25.56;95613.06;5135523;27;20224;-59
2023/10/02 11:27:15;;;;;;;1.60;0.60;;;;;;;34.76;26.32;95663.50;5134888;27;20192;-59
2023/10/02 11:29:45;;;;;;;0.80;0.80;;;;;;;33.64;27.49;95647.25;5135693;27;20652;-59
2023/10/02 11:32:21;;;;;;;3.13;2.63;;;;;;;33.38;27.87;95661.63;5135561;27;20203;-59
2023/10/02 11:34:58;;;;;;;0.40;0.30;;;;;;;34.64;27.52;95658.56;5135578;27;20561;-60
2023/10/02 11:37:28;;;;;;;1.93;0.90;;;;;;;35.38;27.66;95648.31;5135285;27;20210;-60
2023/10/02 11:39:57;;;;;;;0.70;0.70;;;;;;;35.85;26.72;95638.03;5134833;27;20649;-58
2023/10/02 11:42:25;;;;;;;0.63;0.50;;;;;;;35.66;26.01;95625.78;5134736;27;20604;-59
2023/10/02 11:44:54;;;;;;;0.40;0.40;;;;;;;35.86;25.78;95640.34;5134791;27;20621;-58
2023/10/02 11:47:26;;;;;;;0.50;0.50;;;;;;;35.77;26.33;95639.38;5135338;27;20226;-59
2023/10/02 11:49:58;;;;;;;0.70;0.55;;;;;;;35.47;25.78;95634.78;5135072;27;20201;-59
2023/10/02 11:52:27;;;;;;;0.47;0.40;;;;;;;35.07;26.16;95634.69;5123926;27;20654;-59
2023/10/02 11:54:55;;;;;;;0.33;0.30;;;;;;;36.26;26.60;95630.84;5131742;27;20718;-59
2023/10/02 11:57:24;;;;;;;3.30;0.50;;;;;;;36.33;25.40;95633.44;5134635;27;20196;-59
2023/10/02 11:59:52;;;;;;;0.70;0.50;;;;;;;35.22;26.23;95629.69;5134059;27;20279;-55
2023/10/02 12:02:20;;;;;;;0.70;0.70;;;;;;;35.77;25.51;95601.53;5132770;27;20688;-59
2023/10/02 12:04:52;;;;;;;0.60;0.50;;;;;;;36.33;25.00;95637.44;5132990;27;20561;-59
2023/10/02 12:07:22;;;;;;;0.40;0.30;;;;;;;36.98;23.28;95627.28;5134670;27;20639;-60
2023/10/02 12:09:53;;;;;;;4.53;0.30;;;;;;;36.61;24.05;95614.72;5134387;27;20200;-60
2023/10/02 12:12:21;;;;;;;0.40;0.33;;;;;;;36.57;24.46;95625.84;5134018;27;20192;-59
2023/10/02 12:14:51;;;;;;;1.70;0.43;;;;;;;36.24;23.90;95632.47;5134188;27;20743;-57
2023/10/02 12:17:20;;;;;;;0.90;0.90;;;;;;;33.91;26.08;95628.06;5133390;27;20850;-60
2023/10/02 12:19:50;;;;;;;1.00;1.00;;;;;;;33.87;26.46;95619.09;5134185;27;20635;-59
2023/10/02 12:22:19;;;;;;;3.57;1.43;;;;;;;34.59;25.56;95620.50;5133907;27;20948;-59
2023/10/02 12:24:49;;;;;;;0.73;0.73;;;;;;;34.31;26.18;95620.88;5134454;27;20291;-58
2023/10/02 12:27:18;;;;;;;0.43;0.40;;;;;;;35.40;25.48;95577.00;5134070;27;20227;-58
2023/10/02 12:29:47;;;;;;;4.30;0.60;;;;;;;35.84;26.00;95620.69;5133852;27;20257;-57
2023/10/02 12:32:16;;;;;;;2.00;0.63;;;;;;;34.90;25.21;95619.22;5133673;27;20194;-58
2023/10/02 12:34:44;;;;;;;2.50;1.07;;;;;;;35.20;26.20;95623.06;5134161;27;20232;-58